createdAt,value
2017-07-19T00:01:39.369Z,12.83
2017-07-19T00:04:09.209Z,9.87
2017-07-19T00:06:38.272Z,9.33
2017-07-19T00:09:08.111Z,9.40
2017-07-19T00:11:37.182Z,9.10
2017-07-19T00:14:07.056Z,8.23
2017-07-19T00:16:36.352Z,14.53
2017-07-19T00:19:05.410Z,9.13
2017-07-19T00:21:34.443Z,9.40
2017-07-19T00:24:03.540Z,9.60
2017-07-19T00:26:32.555Z,9.27
2017-07-19T00:29:02.411Z,13.83
2017-07-19T00:31:31.483Z,8.10
2017-07-19T00:34:01.300Z,16.00
2017-07-19T00:36:30.380Z,9.27
2017-07-19T00:39:00.208Z,10.60
2017-07-19T00:41:29.259Z,9.60
2017-07-19T00:43:58.335Z,9.67
2017-07-19T00:46:27.395Z,10.43
2017-07-19T00:48:56.711Z,9.80
2017-07-19T00:51:25.802Z,9.97
2017-07-19T00:53:54.844Z,14.70
2017-07-19T00:56:23.900Z,9.50
2017-07-19T00:58:52.984Z,10.73
2017-07-19T01:01:22.066Z,9.30
2017-07-19T01:03:51.883Z,13.40
2017-07-19T01:06:20.968Z,9.87
2017-07-19T01:08:50.036Z,9.77
2017-07-19T01:11:19.095Z,12.20
2017-07-19T01:13:48.158Z,10.10
2017-07-19T01:16:17.216Z,10.60
2017-07-19T01:18:46.293Z,10.33
2017-07-19T01:21:15.729Z,9.27
2017-07-19T01:23:44.772Z,8.87
2017-07-19T01:26:13.847Z,10.10
2017-07-19T01:28:43.143Z,13.90
2017-07-19T01:31:12.220Z,9.97
2017-07-19T01:33:41.283Z,10.77
2017-07-19T01:36:10.381Z,10.20
2017-07-19T01:38:40.834Z,10.33
2017-07-19T01:41:09.910Z,13.97
2017-07-19T01:43:38.952Z,9.87
2017-07-19T01:46:08.028Z,12.63
2017-07-19T01:48:37.068Z,10.97
2017-07-19T01:51:06.143Z,12.00
2017-07-19T01:53:35.220Z,10.60
2017-07-19T01:56:04.292Z,10.77
2017-07-19T01:58:33.376Z,13.80
2017-07-19T02:01:02.419Z,11.00
2017-07-19T02:03:31.533Z,12.10
2017-07-19T02:06:00.592Z,11.03
2017-07-19T02:08:29.648Z,11.03
2017-07-19T02:10:58.739Z,10.63
2017-07-19T02:13:27.823Z,11.87
2017-07-19T02:15:57.133Z,11.50
2017-07-19T02:18:26.215Z,12.03
2017-07-19T02:20:55.443Z,10.90
2017-07-19T02:23:24.501Z,12.10
2017-07-19T02:25:53.565Z,11.47
2017-07-19T02:28:22.692Z,11.57
2017-07-19T02:30:51.771Z,13.57
2017-07-19T02:33:20.835Z,10.77
2017-07-19T02:35:49.892Z,11.47
2017-07-19T02:38:18.946Z,10.23
2017-07-19T02:40:48.004Z,11.47
2017-07-19T02:43:17.064Z,10.87
2017-07-19T02:45:46.124Z,10.40
2017-07-19T02:48:15.203Z,12.10
2017-07-19T02:50:44.489Z,17.53
2017-07-19T02:53:13.578Z,12.63
2017-07-19T02:55:42.635Z,11.50
2017-07-19T02:58:11.739Z,11.90
2017-07-19T03:00:40.801Z,11.70
2017-07-19T03:03:09.899Z,11.70
2017-07-19T03:05:38.961Z,12.60
2017-07-19T03:08:08.076Z,12.40
2017-07-19T03:10:37.097Z,12.80
2017-07-19T03:13:06.207Z,13.40
2017-07-19T03:15:35.268Z,12.37
2017-07-19T03:18:04.355Z,13.50
2017-07-19T03:20:33.391Z,12.30
2017-07-19T03:23:02.484Z,10.57
2017-07-19T03:25:31.565Z,10.60
2017-07-19T03:28:00.649Z,14.50
2017-07-19T03:30:29.688Z,11.10
2017-07-19T03:32:58.772Z,11.37
2017-07-19T03:35:27.860Z,11.90
2017-07-19T03:37:56.924Z,12.53
2017-07-19T03:40:26.036Z,12.10
2017-07-19T03:42:55.118Z,13.03
2017-07-19T03:45:24.197Z,12.00
2017-07-19T03:47:53.504Z,13.17
2017-07-19T03:50:22.785Z,12.73
2017-07-19T03:52:51.824Z,11.23
2017-07-19T03:55:20.882Z,11.47
2017-07-19T03:57:49.976Z,12.00
2017-07-19T04:00:19.081Z,12.63
2017-07-19T04:02:48.153Z,13.03
2017-07-19T04:05:17.249Z,14.53
2017-07-19T04:07:46.337Z,13.30
2017-07-19T04:10:15.452Z,12.40
2017-07-19T04:12:44.524Z,13.73
2017-07-19T04:15:13.637Z,12.57
2017-07-19T04:17:42.699Z,13.10
2017-07-19T04:20:11.796Z,13.10
2017-07-19T04:22:40.856Z,12.27
2017-07-19T04:25:10.126Z,12.47
2017-07-19T04:27:39.204Z,13.00
2017-07-19T04:30:08.305Z,12.60
2017-07-19T04:32:37.347Z,12.13
2017-07-19T04:35:06.414Z,11.87
2017-07-19T04:37:35.472Z,11.43
2017-07-19T04:40:04.756Z,13.17
2017-07-19T04:42:33.844Z,13.00
2017-07-19T04:45:02.946Z,12.80
2017-07-19T04:47:31.992Z,12.70
2017-07-19T04:50:01.074Z,11.67
2017-07-19T04:52:30.186Z,12.33
2017-07-19T04:54:59.225Z,12.00
2017-07-19T04:57:28.319Z,12.07
2017-07-19T04:59:57.408Z,11.63
2017-07-19T05:02:26.470Z,13.10
2017-07-19T05:04:55.669Z,10.87
2017-07-19T05:07:24.736Z,11.43
2017-07-19T05:09:53.829Z,11.47
2017-07-19T05:12:23.758Z,12.10
2017-07-19T05:14:52.792Z,12.10
2017-07-19T05:17:22.038Z,12.40
2017-07-19T05:19:51.101Z,11.30
2017-07-19T05:37:41.173Z,12.27
2017-07-19T05:40:10.283Z,13.23
2017-07-19T05:42:39.316Z,14.87
2017-07-19T05:45:08.372Z,11.13
2017-07-19T05:47:37.448Z,12.27
2017-07-19T05:50:06.531Z,11.10
2017-07-19T05:52:35.594Z,12.73
2017-07-19T05:55:04.647Z,11.30
2017-07-19T05:57:33.716Z,10.70
2017-07-19T06:00:02.853Z,11.97
2017-07-19T06:02:31.907Z,11.67
2017-07-19T06:05:01.162Z,10.93
2017-07-19T06:07:30.300Z,11.17
2017-07-19T06:09:59.395Z,10.90
2017-07-19T06:12:28.463Z,12.50
2017-07-19T06:14:57.522Z,11.43
2017-07-19T06:17:26.612Z,10.77
2017-07-19T06:19:55.687Z,11.67
2017-07-19T06:22:24.744Z,11.13
2017-07-19T06:24:53.816Z,11.20
2017-07-19T06:27:22.884Z,10.40
2017-07-19T06:29:51.948Z,11.40
2017-07-19T06:32:21.019Z,12.00
2017-07-19T06:34:50.069Z,11.23
2017-07-19T06:37:19.154Z,10.90
2017-07-19T06:39:48.399Z,13.30
2017-07-19T06:42:17.450Z,12.13
2017-07-19T06:44:46.507Z,10.10
2017-07-19T06:47:15.632Z,10.67
2017-07-19T06:49:44.691Z,10.67
2017-07-19T06:52:41.440Z,11.60
2017-07-19T06:55:10.507Z,9.80
2017-07-19T06:57:39.550Z,9.87
2017-07-19T07:00:08.645Z,10.23
2017-07-19T07:02:37.711Z,11.30
2017-07-19T07:05:06.760Z,10.63
2017-07-19T07:07:35.877Z,11.40
2017-07-19T07:10:04.944Z,9.90
2017-07-19T07:12:34.208Z,10.50
2017-07-19T07:15:03.325Z,9.93
2017-07-19T07:17:32.376Z,9.57
2017-07-19T07:20:01.445Z,10.13
2017-07-19T07:22:30.514Z,11.10
2017-07-19T07:24:59.560Z,9.87
2017-07-19T07:27:28.607Z,10.43
2017-07-19T07:29:57.673Z,8.27
2017-07-19T07:32:26.745Z,9.53
2017-07-19T07:34:55.780Z,7.70
2017-07-19T07:37:24.864Z,10.30
2017-07-19T07:39:53.936Z,7.73
2017-07-19T07:42:23.011Z,8.60
2017-07-19T07:44:52.058Z,8.17
2017-07-19T07:47:21.100Z,8.00
2017-07-19T07:49:50.176Z,8.17
2017-07-19T07:52:19.245Z,7.93
2017-07-19T07:54:48.280Z,7.80
2017-07-19T07:57:17.350Z,8.93
2017-07-19T07:59:46.404Z,7.83
2017-07-19T08:02:15.485Z,7.40
2017-07-19T08:04:44.528Z,8.17
2017-07-19T08:07:13.607Z,8.57
2017-07-19T08:09:42.759Z,8.73
2017-07-19T08:12:11.820Z,8.07
2017-07-19T08:14:40.876Z,8.40
2017-07-19T08:17:09.924Z,7.60
2017-07-19T08:19:39.005Z,7.90
2017-07-19T08:22:08.052Z,8.53
2017-07-19T08:24:37.134Z,7.90
2017-07-19T08:27:06.200Z,7.27
2017-07-19T08:29:35.239Z,9.63
2017-07-19T08:32:04.327Z,8.17
2017-07-19T08:34:33.415Z,7.47
2017-07-19T08:37:02.472Z,7.70
2017-07-19T08:39:31.550Z,10.20
2017-07-19T08:42:00.639Z,6.87
2017-07-19T08:44:29.697Z,7.87
2017-07-19T08:46:58.772Z,7.13
2017-07-19T08:49:27.836Z,7.10
2017-07-19T08:51:56.911Z,7.03
2017-07-19T08:54:25.976Z,10.07
2017-07-19T08:56:55.039Z,6.70
2017-07-19T08:59:24.096Z,7.00
2017-07-19T09:01:53.216Z,6.93
2017-07-19T09:04:22.235Z,6.47
2017-07-19T09:06:51.529Z,7.50
2017-07-19T09:09:20.580Z,8.97
2017-07-19T09:11:49.623Z,6.83
2017-07-19T09:14:18.712Z,7.30
2017-07-19T09:16:47.768Z,6.03
2017-07-19T09:19:16.827Z,6.60
2017-07-19T09:21:45.868Z,5.70
2017-07-19T09:24:14.929Z,6.70
2017-07-19T09:26:43.978Z,7.00
2017-07-19T09:29:13.076Z,6.97
2017-07-19T09:31:42.183Z,6.20
2017-07-19T09:34:11.202Z,7.20
2017-07-19T09:36:40.467Z,6.93
2017-07-19T09:39:09.544Z,5.83
2017-07-19T09:41:38.611Z,6.50
2017-07-19T09:44:07.796Z,6.83
2017-07-19T09:46:36.885Z,7.00
2017-07-19T09:49:05.919Z,6.10
2017-07-19T09:51:34.980Z,7.40
2017-07-19T09:54:04.038Z,6.47
2017-07-19T09:56:33.118Z,7.10
2017-07-19T09:59:02.173Z,7.80
2017-07-19T10:01:31.225Z,6.53
2017-07-19T10:04:00.284Z,7.07
2017-07-19T10:06:29.366Z,6.93
2017-07-19T10:08:58.427Z,7.83
2017-07-19T10:11:27.478Z,6.63
2017-07-19T10:13:56.537Z,6.67
2017-07-19T10:16:25.600Z,6.67
2017-07-19T10:18:54.650Z,7.27
2017-07-19T10:21:23.710Z,7.70
2017-07-19T10:23:52.780Z,6.97
2017-07-19T10:26:21.854Z,7.93
2017-07-19T10:28:50.895Z,7.60
2017-07-19T10:31:19.951Z,6.93
2017-07-19T10:33:49.023Z,7.03
2017-07-19T10:36:18.107Z,6.43
2017-07-19T10:38:47.172Z,7.10
2017-07-19T10:41:16.235Z,6.20
2017-07-19T10:43:45.423Z,6.83
2017-07-19T10:46:14.492Z,6.73
2017-07-19T10:48:43.565Z,6.47
2017-07-19T10:51:12.620Z,6.10
2017-07-19T10:53:41.684Z,6.30
2017-07-19T10:56:10.746Z,5.67
2017-07-19T10:58:39.805Z,6.17
2017-07-19T11:01:08.853Z,6.23
2017-07-19T11:03:37.947Z,6.33
2017-07-19T11:06:07.018Z,6.43
2017-07-19T11:08:36.051Z,6.30
2017-07-19T11:11:05.138Z,6.53
2017-07-19T11:13:34.168Z,6.27
2017-07-19T11:16:03.251Z,5.77
2017-07-19T11:18:32.303Z,5.97
2017-07-19T11:21:01.382Z,5.30
2017-07-19T11:23:30.435Z,5.73
2017-07-19T11:25:59.476Z,5.43
2017-07-19T11:28:28.564Z,6.73
2017-07-19T11:30:57.665Z,6.23
2017-07-19T11:33:26.756Z,6.93
2017-07-19T11:35:55.824Z,6.60
2017-07-19T11:38:24.851Z,6.80
2017-07-19T11:40:53.945Z,6.60
2017-07-19T11:43:22.988Z,6.43
2017-07-19T11:45:52.076Z,6.57
2017-07-19T11:48:21.168Z,7.30
2017-07-19T11:50:50.192Z,7.13
2017-07-19T11:53:19.314Z,7.07
2017-07-19T11:55:48.367Z,7.37
2017-07-19T11:58:17.400Z,7.30
2017-07-19T12:00:46.463Z,5.97
2017-07-19T12:03:15.524Z,6.87
2017-07-19T12:05:45.200Z,6.40
2017-07-19T12:08:14.252Z,7.87
2017-07-19T12:10:43.323Z,7.30
2017-07-19T12:13:12.407Z,6.40
2017-07-19T12:15:41.437Z,6.70
2017-07-19T12:18:10.623Z,6.67
2017-07-19T12:20:39.796Z,6.40
2017-07-19T12:23:08.891Z,6.33
2017-07-19T12:25:37.955Z,7.07
2017-07-19T12:28:06.984Z,5.97
2017-07-19T12:30:36.056Z,6.67
2017-07-19T12:33:05.116Z,6.37
2017-07-19T12:35:34.155Z,6.63
2017-07-19T12:38:03.214Z,6.93
2017-07-19T12:40:32.294Z,6.70
2017-07-19T12:43:01.338Z,6.90
2017-07-19T12:45:30.408Z,6.87
2017-07-19T12:47:59.483Z,6.40
2017-07-19T12:50:28.558Z,7.10
2017-07-19T12:52:57.631Z,6.13
2017-07-19T12:55:26.647Z,10.30
2017-07-19T12:57:55.708Z,6.03
2017-07-19T13:00:24.769Z,6.10
2017-07-19T13:02:53.804Z,6.27
2017-07-19T13:05:22.893Z,7.00
2017-07-19T13:07:51.922Z,6.10
2017-07-19T13:10:20.984Z,5.17
2017-07-19T13:12:50.021Z,6.17
2017-07-19T13:15:19.097Z,6.27
2017-07-19T13:17:48.192Z,6.80
2017-07-19T13:20:17.280Z,6.47
2017-07-19T13:22:46.312Z,6.40
2017-07-19T13:25:15.340Z,7.00
2017-07-19T13:27:44.413Z,6.50
2017-07-19T13:30:13.536Z,7.40
2017-07-19T13:32:42.836Z,6.33
2017-07-19T13:35:11.926Z,6.20
2017-07-19T13:37:40.976Z,6.93
2017-07-19T13:40:10.076Z,6.83
2017-07-19T13:42:39.132Z,6.60
2017-07-19T13:45:08.380Z,6.63
2017-07-19T13:47:37.472Z,7.67
2017-07-19T13:50:06.558Z,6.80
2017-07-19T13:52:35.623Z,9.30
2017-07-19T13:55:04.688Z,8.97
2017-07-19T13:57:33.721Z,9.23
2017-07-19T14:00:02.801Z,7.20
2017-07-19T14:02:31.852Z,6.00
2017-07-19T14:05:00.905Z,6.20
2017-07-19T14:07:29.977Z,6.33
2017-07-19T14:09:58.997Z,6.50
2017-07-19T14:12:28.064Z,6.67
2017-07-19T14:14:57.124Z,7.97
2017-07-19T14:17:26.180Z,7.37
2017-07-19T14:19:55.211Z,7.50
2017-07-19T14:22:24.294Z,7.00
2017-07-19T14:24:53.349Z,7.67
2017-07-19T14:27:22.380Z,7.33
2017-07-19T14:29:51.455Z,6.60
2017-07-19T14:32:20.511Z,7.33
2017-07-19T14:34:49.548Z,7.13
2017-07-19T14:37:18.639Z,7.77
2017-07-19T14:39:47.668Z,8.63
2017-07-19T14:42:16.769Z,7.97
2017-07-19T14:44:45.804Z,7.93
2017-07-19T14:47:14.855Z,7.93
2017-07-19T14:49:43.949Z,7.67
2017-07-19T14:52:13.012Z,11.23
2017-07-19T14:54:42.085Z,7.70
2017-07-19T14:57:11.127Z,38.60
2017-07-19T14:59:40.191Z,30.10
2017-07-19T15:02:09.259Z,25.73
2017-07-19T15:04:38.312Z,15.60
2017-07-19T15:07:07.380Z,7.83
2017-07-19T15:09:36.478Z,12.33
2017-07-19T15:12:05.786Z,8.73
2017-07-19T15:14:34.842Z,11.70
2017-07-19T15:17:03.912Z,8.43
2017-07-19T15:19:32.959Z,12.40
2017-07-19T15:22:02.036Z,7.30
2017-07-19T15:24:31.292Z,8.07
2017-07-19T15:27:00.351Z,14.00
2017-07-19T15:29:29.406Z,13.00
2017-07-19T15:31:58.523Z,7.00
2017-07-19T15:34:27.585Z,7.87
2017-07-19T15:36:56.627Z,8.33
2017-07-19T15:39:25.724Z,19.43
2017-07-19T15:41:54.789Z,14.50
2017-07-19T15:44:23.875Z,10.63
2017-07-19T15:46:52.942Z,12.20
2017-07-19T15:49:21.995Z,12.50
2017-07-19T15:51:51.073Z,14.30
2017-07-19T15:54:20.132Z,9.30
2017-07-19T15:56:49.221Z,16.33
2017-07-19T15:59:18.263Z,9.40
2017-07-19T16:01:47.345Z,16.87
2017-07-19T16:04:16.432Z,14.60
2017-07-19T16:06:45.487Z,13.83
2017-07-19T16:09:14.556Z,13.50
2017-07-19T16:11:43.628Z,11.03
2017-07-19T16:14:12.699Z,14.87
2017-07-19T16:16:41.818Z,15.50
2017-07-19T16:19:10.856Z,16.97
2017-07-19T16:21:39.936Z,17.10
2017-07-19T16:24:08.992Z,17.67
2017-07-19T16:26:38.036Z,11.30
2017-07-19T16:29:07.147Z,14.70
2017-07-19T16:31:36.188Z,13.50
2017-07-19T16:34:05.245Z,19.03
2017-07-19T16:36:34.288Z,19.33
2017-07-19T16:39:03.366Z,16.33
2017-07-19T16:41:32.428Z,15.90
2017-07-19T16:44:01.505Z,16.47
2017-07-19T16:46:30.555Z,22.03
2017-07-19T16:48:59.624Z,19.47
2017-07-19T16:51:28.672Z,12.90
2017-07-19T16:53:58.532Z,14.33
2017-07-19T16:56:27.617Z,15.87
2017-07-19T16:58:56.675Z,20.57
2017-07-19T17:01:25.716Z,16.47
2017-07-19T17:03:54.776Z,16.80
2017-07-19T17:06:24.596Z,21.97
2017-07-19T17:08:53.627Z,13.40
2017-07-19T17:11:22.700Z,12.37
2017-07-19T17:13:51.773Z,13.17
2017-07-19T17:16:21.599Z,14.20
2017-07-19T17:18:50.674Z,12.03
2017-07-19T17:21:19.729Z,10.57
2017-07-19T17:23:48.789Z,12.60
2017-07-19T17:26:17.858Z,11.53
2017-07-19T17:28:47.944Z,13.27
2017-07-19T17:31:17.337Z,12.07
2017-07-19T17:33:46.389Z,10.10
2017-07-19T17:36:15.533Z,12.43
2017-07-19T17:38:44.579Z,8.70
2017-07-19T17:41:13.677Z,12.30
2017-07-19T17:43:42.743Z,9.30
2017-07-19T17:46:11.819Z,13.73
2017-07-19T17:48:40.949Z,15.20
2017-07-19T17:51:10.810Z,12.23
2017-07-19T17:53:39.867Z,10.50
2017-07-19T17:56:09.108Z,8.20
2017-07-19T17:58:38.184Z,15.07
2017-07-19T18:01:07.266Z,10.97
2017-07-19T18:03:36.342Z,10.17
2017-07-19T18:06:06.187Z,12.83
2017-07-19T18:08:35.273Z,9.00
2017-07-19T18:11:04.324Z,13.40
2017-07-19T18:13:33.398Z,19.73
2017-07-19T18:16:02.474Z,13.37
2017-07-19T18:18:31.519Z,13.10
2017-07-19T18:21:00.603Z,12.23
2017-07-19T18:23:29.675Z,12.83
2017-07-19T18:25:58.980Z,12.20
2017-07-19T18:28:28.043Z,19.33
2017-07-19T18:30:57.135Z,10.80
2017-07-19T18:33:26.223Z,11.67
2017-07-19T18:35:55.295Z,8.67
2017-07-19T18:38:25.146Z,13.03
2017-07-19T18:40:54.201Z,8.23
2017-07-19T18:43:24.064Z,9.73
2017-07-19T18:45:53.131Z,9.67
2017-07-19T18:48:22.183Z,9.67
2017-07-19T18:50:51.254Z,9.83
2017-07-19T18:53:20.300Z,6.27
2017-07-19T18:55:50.152Z,7.43
2017-07-19T18:58:19.225Z,8.87
2017-07-19T19:00:48.288Z,12.00
2017-07-19T19:03:17.359Z,8.93
2017-07-19T19:05:46.475Z,8.00
2017-07-19T19:08:15.765Z,12.00
2017-07-19T19:10:44.842Z,10.80
2017-07-19T19:13:13.932Z,9.63
2017-07-19T19:15:42.997Z,10.77
2017-07-19T19:18:12.069Z,9.10
2017-07-19T19:20:41.121Z,8.97
2017-07-19T19:23:10.225Z,6.67
2017-07-19T19:25:39.291Z,9.87
2017-07-19T19:28:08.444Z,8.13
2017-07-19T19:30:37.489Z,10.37
2017-07-19T19:33:06.556Z,7.27
2017-07-19T19:35:36.403Z,6.83
2017-07-19T19:38:05.471Z,8.40
2017-07-19T19:40:34.517Z,9.83
2017-07-19T19:43:03.609Z,5.30
2017-07-19T19:45:32.660Z,8.70
2017-07-19T19:48:01.701Z,9.70
2017-07-19T19:50:30.778Z,9.77
2017-07-19T19:52:59.845Z,6.27
2017-07-19T19:55:29.028Z,6.07
2017-07-19T19:57:58.862Z,9.17
2017-07-19T20:00:27.916Z,8.00
2017-07-19T20:02:56.984Z,11.77
2017-07-19T20:05:26.068Z,9.50
2017-07-19T20:07:55.116Z,8.50
2017-07-19T20:10:24.648Z,6.83
2017-07-19T20:12:53.708Z,7.70
2017-07-19T20:15:22.763Z,7.10
2017-07-19T20:17:51.844Z,9.80
2017-07-19T20:20:20.902Z,10.93
2017-07-19T20:22:50.725Z,12.47
2017-07-19T20:25:19.785Z,12.03
2017-07-19T20:27:48.860Z,12.40
2017-07-19T20:30:17.944Z,12.03
2017-07-19T20:32:47.024Z,10.20
2017-07-19T20:35:16.372Z,9.60
2017-07-19T20:37:45.417Z,10.43
2017-07-19T20:40:14.513Z,9.17
2017-07-19T20:42:43.568Z,8.17
2017-07-19T20:45:12.897Z,11.73
2017-07-19T20:47:42.752Z,7.40
2017-07-19T20:50:11.837Z,7.70
2017-07-19T20:52:40.936Z,11.20
2017-07-19T20:55:11.000Z,9.67
2017-07-19T20:57:40.084Z,14.50
2017-07-19T21:00:09.148Z,9.90
2017-07-19T21:02:38.200Z,10.40
2017-07-19T21:05:07.304Z,10.50
2017-07-19T21:07:36.376Z,12.30
2017-07-19T21:10:06.223Z,14.30
2017-07-19T21:12:35.302Z,12.50
2017-07-19T21:15:04.433Z,11.00
2017-07-19T21:17:33.464Z,14.90
2017-07-19T21:20:03.306Z,7.43
2017-07-19T21:22:34.277Z,14.03
2017-07-19T21:25:03.620Z,8.10
2017-07-19T21:27:32.652Z,7.67
2017-07-19T21:30:01.730Z,8.40
2017-07-19T21:32:30.772Z,13.33
2017-07-19T21:35:00.093Z,11.77
2017-07-19T21:37:29.160Z,11.67
2017-07-19T21:39:58.246Z,10.67
2017-07-19T21:42:27.380Z,7.73
2017-07-19T21:44:56.448Z,10.60
2017-07-19T21:47:25.512Z,8.93
2017-07-19T21:49:54.587Z,15.30
2017-07-19T21:52:24.765Z,7.17
2017-07-19T21:54:53.836Z,9.57
2017-07-19T21:57:22.904Z,10.27
2017-07-19T21:59:51.985Z,14.43
2017-07-19T22:02:21.825Z,17.73
2017-07-19T22:04:50.884Z,12.50
2017-07-19T22:07:19.941Z,12.23
2017-07-19T22:09:48.999Z,14.10
2017-07-19T22:12:18.097Z,10.90
2017-07-19T22:14:47.907Z,8.67
2017-07-19T22:17:17.053Z,10.67
2017-07-19T22:19:46.140Z,13.03
2017-07-19T22:22:15.234Z,11.90
2017-07-19T22:24:45.192Z,10.33
2017-07-19T22:27:15.060Z,9.10
2017-07-19T22:29:44.143Z,12.20
2017-07-19T22:32:13.225Z,11.83
2017-07-19T22:34:42.281Z,9.10
2017-07-19T22:37:11.369Z,9.73
2017-07-19T22:39:40.424Z,8.63
2017-07-19T22:42:09.502Z,8.93
2017-07-19T22:44:38.580Z,15.50
2017-07-19T22:47:08.380Z,11.07
2017-07-19T22:49:37.482Z,10.43
2017-07-19T22:52:06.548Z,8.60
2017-07-19T22:54:35.588Z,14.40
2017-07-19T22:57:04.664Z,10.13
2017-07-19T22:59:34.495Z,9.37
2017-07-19T23:02:04.336Z,10.77
2017-07-19T23:04:33.399Z,11.17
2017-07-19T23:07:02.453Z,11.70
2017-07-19T23:09:31.673Z,14.70
2017-07-19T23:12:00.780Z,11.73
2017-07-19T23:14:29.820Z,9.93
2017-07-19T23:16:58.889Z,11.57
2017-07-19T23:19:27.951Z,13.40
2017-07-19T23:21:57.053Z,14.63
2017-07-19T23:24:26.893Z,12.47
2017-07-19T23:26:55.974Z,8.33
2017-07-19T23:29:25.043Z,11.23
2017-07-19T23:31:54.863Z,8.63
2017-07-19T23:34:25.333Z,15.83
2017-07-19T23:36:54.425Z,11.73
2017-07-19T23:39:23.483Z,11.67
2017-07-19T23:41:52.549Z,10.20
2017-07-19T23:44:21.611Z,11.00
2017-07-19T23:46:50.772Z,13.03
2017-07-19T23:49:21.384Z,8.27
2017-07-19T23:51:52.384Z,9.47
2017-07-19T23:54:22.196Z,13.70
2017-07-19T23:56:53.857Z,15.53
2017-07-19T23:59:23.182Z,9.63
